Terminal Aerodrome Forecast
Issued by NWS

Home | Current Version | Previous Version | Text Only | Print | Product List | Glossary On
Versions: 1 2 3 4 5 6 7 8 9 10 11 12 13 14 15 16 17 18 19 20 21 22 23 24 25 26 27 28 29 30 31 32
217
FTUS41 KOKX 200531
TAFGON
TAF
KGON 200531Z 2006/2106 29010KT P6SM SCT050
     FM201400 28016G24KT P6SM SCT050
     FM202200 28012G19KT P6SM FEW050
     FM210000 26009KT P6SM SKC=

USA.gov is the U.S. government's official web portal to all federal, state and local government web resources and services.